createdAt,value
2022-09-10T00:01:46.224Z,17.75
2022-09-10T00:04:16.103Z,17.75
2022-09-10T00:06:47.337Z,17.61
2022-09-10T00:09:15.670Z,17.56
2022-09-10T00:11:45.884Z,17.66
2022-09-10T00:14:17.250Z,17.73
2022-09-10T00:16:47.142Z,17.59
2022-09-10T00:19:16.006Z,17.75
2022-09-10T00:21:45.509Z,17.78
2022-09-10T00:24:15.214Z,17.83
2022-09-10T00:26:46.688Z,17.66
2022-09-10T00:29:18.497Z,17.78
2022-09-10T00:31:48.917Z,17.89
2022-09-10T00:34:17.600Z,17.79
2022-09-10T00:36:47.576Z,17.83
2022-09-10T00:39:20.351Z,17.88
2022-09-10T00:41:50.166Z,17.87
2022-09-10T00:44:55.986Z,17.96
2022-09-10T00:47:28.287Z,17.72
2022-09-10T00:50:00.158Z,17.73
2022-09-10T00:52:29.446Z,17.58
2022-09-10T00:54:59.508Z,17.55
2022-09-10T00:57:29.555Z,17.63
2022-09-10T01:00:01.173Z,17.57
2022-09-10T01:02:29.527Z,17.71
2022-09-10T01:04:59.332Z,17.49
2022-09-10T01:07:29.511Z,17.75
2022-09-10T01:10:00.170Z,17.55
2022-09-10T01:12:40.540Z,17.66
2022-09-10T01:15:17.018Z,17.62
2022-09-10T01:17:59.129Z,17.74
2022-09-10T01:21:03.339Z,17.48
2022-09-10T01:24:01.274Z,17.60
2022-09-10T01:27:06.348Z,17.40
2022-09-10T01:29:39.869Z,17.51
2022-09-10T01:32:12.599Z,17.49
2022-09-10T01:34:46.905Z,17.34
2022-09-10T01:37:21.625Z,17.17
2022-09-10T01:39:52.166Z,17.21
2022-09-10T01:42:26.069Z,17.24
2022-09-10T01:44:58.140Z,17.10
2022-09-10T01:47:48.338Z,17.25
2022-09-10T01:50:24.206Z,17.01
2022-09-10T01:53:06.436Z,17.18
2022-09-10T01:55:46.025Z,17.10
2022-09-10T01:58:20.104Z,17.02
2022-09-10T02:01:04.137Z,17.19
2022-09-10T02:03:36.199Z,16.98
2022-09-10T02:06:07.219Z,17.17
2022-09-10T02:08:43.527Z,17.21
2022-09-10T02:11:14.462Z,17.11
2022-09-10T02:13:48.869Z,17.27
2022-09-10T02:16:28.246Z,17.20
2022-09-10T02:18:59.805Z,17.19
2022-09-10T02:21:28.103Z,17.04
2022-09-10T02:23:59.627Z,17.23
2022-09-10T02:26:29.205Z,17.25
2022-09-10T02:28:57.808Z,17.21
2022-09-10T02:31:28.633Z,17.14
2022-09-10T02:33:58.004Z,17.34
2022-09-10T02:36:31.798Z,17.41
2022-09-10T02:39:03.311Z,17.46
2022-09-10T02:41:34.082Z,17.47
2022-09-10T02:44:04.896Z,17.46
2022-09-10T02:46:35.585Z,17.42
2022-09-10T02:49:03.850Z,17.18
2022-09-10T02:51:39.164Z,17.40
2022-09-10T02:54:09.019Z,17.21
2022-09-10T02:56:38.538Z,17.26
2022-09-10T02:59:09.055Z,17.27
2022-09-10T03:01:40.877Z,17.18
2022-09-10T03:04:10.877Z,17.17
2022-09-10T03:06:43.334Z,17.06
2022-09-10T03:09:11.877Z,17.17
2022-09-10T03:11:44.453Z,17.09
2022-09-10T03:14:16.371Z,17.21
2022-09-10T03:16:48.490Z,16.97
2022-09-10T03:19:17.604Z,16.98
2022-09-10T03:21:47.540Z,17.08
2022-09-10T03:24:17.305Z,17.05
2022-09-10T03:26:47.817Z,17.15
2022-09-10T03:29:18.289Z,17.16
2022-09-10T03:31:51.777Z,17.37
2022-09-10T03:34:22.083Z,17.31
2022-09-10T03:36:51.569Z,17.29
2022-09-10T03:39:21.735Z,17.32
2022-09-10T03:41:49.865Z,17.17
2022-09-10T03:44:20.065Z,17.18
2022-09-10T03:46:52.107Z,17.15
2022-09-10T03:49:21.787Z,17.06
2022-09-10T03:51:51.009Z,17.02
2022-09-10T03:54:23.072Z,16.97
2022-09-10T03:56:52.053Z,17.14
2022-09-10T03:59:21.934Z,17.01
2022-09-10T04:01:52.356Z,17.23
2022-09-10T04:04:23.030Z,17.00
2022-09-10T04:06:54.096Z,16.98
2022-09-10T04:09:23.706Z,17.13
2022-09-10T04:11:52.091Z,17.04
2022-09-10T04:14:24.420Z,17.11
2022-09-10T04:16:54.413Z,17.04
2022-09-10T04:19:28.184Z,17.12
2022-09-10T04:21:58.190Z,17.17
2022-09-10T04:24:26.958Z,17.22
2022-09-10T04:26:56.146Z,17.05
2022-09-10T04:29:25.965Z,16.98
2022-09-10T04:31:56.370Z,16.94
2022-09-10T04:34:26.301Z,17.18
2022-09-10T04:36:54.992Z,17.11
2022-09-10T04:39:24.831Z,17.27
2022-09-10T04:41:54.032Z,17.21
2022-09-10T04:44:23.611Z,17.14
2022-09-10T04:46:53.077Z,17.16
2022-09-10T04:49:25.133Z,17.22
2022-09-10T04:51:55.005Z,17.31
2022-09-10T04:54:24.547Z,17.27
2022-09-10T04:56:54.102Z,17.32
2022-09-10T04:59:24.420Z,17.17
2022-09-10T05:01:54.436Z,17.31
2022-09-10T05:04:24.340Z,17.31
2022-09-10T05:06:54.126Z,17.44
2022-09-10T05:09:23.676Z,17.39
2022-09-10T05:11:52.170Z,17.30
2022-09-10T05:14:23.375Z,17.24
2022-09-10T05:16:52.206Z,17.32
2022-09-10T05:19:22.023Z,17.30
2022-09-10T05:21:57.367Z,17.01
2022-09-10T05:24:27.508Z,17.32
2022-09-10T05:26:59.904Z,17.20
2022-09-10T05:29:29.188Z,17.02
2022-09-10T05:31:58.061Z,17.17
2022-09-10T05:34:28.491Z,17.15
2022-09-10T05:36:58.582Z,17.05
2022-09-10T05:39:28.423Z,17.22
2022-09-10T05:41:57.384Z,17.05
2022-09-10T05:44:26.803Z,17.14
2022-09-10T05:46:56.215Z,17.22
2022-09-10T05:49:25.844Z,17.19
2022-09-10T05:51:54.059Z,17.28
2022-09-10T05:54:24.855Z,17.41
2022-09-10T05:56:54.245Z,17.35
2022-09-10T05:59:23.834Z,17.35
2022-09-10T06:01:54.138Z,17.26
2022-09-10T06:04:25.163Z,17.41
2022-09-10T06:06:54.413Z,17.45
2022-09-10T06:09:25.637Z,17.45
2022-09-10T06:12:07.300Z,17.52
2022-09-10T06:14:38.316Z,17.45
2022-09-10T06:17:07.149Z,17.65
2022-09-10T06:19:36.623Z,17.74
2022-09-10T06:22:05.380Z,18.00
2022-09-10T06:24:41.102Z,17.61
2022-09-10T06:27:10.829Z,17.61
2022-09-10T06:29:41.132Z,17.53
2022-09-10T06:32:12.561Z,17.80
2022-09-10T06:34:41.142Z,17.82
2022-09-10T06:37:10.647Z,17.73
2022-09-10T06:39:41.682Z,17.93
2022-09-10T06:42:13.753Z,17.90
2022-09-10T06:45:12.155Z,17.92
2022-09-10T06:48:37.714Z,18.01
2022-09-10T06:50:59.784Z,18.08
2022-09-10T06:53:38.480Z,18.23
2022-09-10T06:56:13.612Z,18.19
2022-09-10T06:58:43.328Z,18.22
2022-09-10T07:01:17.445Z,18.41
2022-09-10T07:03:55.916Z,18.37
2022-09-10T07:06:27.259Z,18.59
2022-09-10T07:09:17.860Z,18.57
2022-09-10T07:11:54.564Z,18.49
2022-09-10T07:14:25.014Z,18.54
2022-09-10T07:16:57.675Z,18.35
2022-09-10T07:19:36.288Z,18.53
2022-09-10T07:22:27.380Z,18.52
2022-09-10T07:24:56.229Z,18.54
2022-09-10T07:27:34.815Z,18.62
2022-09-10T07:30:04.802Z,18.54
2022-09-10T07:32:33.912Z,18.63
2022-09-10T07:35:09.889Z,18.67
2022-09-10T07:37:41.590Z,18.77
2022-09-10T07:40:12.067Z,18.95
2022-09-10T07:42:44.626Z,19.00
2022-09-10T07:45:15.951Z,18.99
2022-09-10T07:47:45.559Z,19.02
2022-09-10T07:50:14.886Z,19.28
2022-09-10T07:52:45.908Z,19.31
2022-09-10T07:55:16.002Z,19.33
2022-09-10T07:57:45.862Z,19.35
2022-09-10T08:00:18.817Z,19.44
2022-09-10T08:02:55.433Z,19.43
2022-09-10T08:05:25.233Z,19.32
2022-09-10T08:07:55.486Z,19.40
2022-09-10T08:10:27.604Z,19.38
2022-09-10T08:12:59.917Z,19.35
2022-09-10T08:15:29.935Z,19.38
2022-09-10T08:18:01.289Z,19.46
2022-09-10T08:20:30.757Z,19.55
2022-09-10T08:22:59.846Z,19.67
2022-09-10T08:25:30.069Z,19.79
2022-09-10T08:28:01.214Z,19.99
2022-09-10T08:30:35.232Z,20.16
2022-09-10T08:33:04.322Z,20.22
2022-09-10T08:35:35.713Z,20.53
2022-09-10T08:38:04.312Z,20.36
2022-09-10T08:40:34.331Z,20.31
2022-09-10T08:43:04.700Z,20.03
2022-09-10T08:45:35.393Z,19.98
2022-09-10T08:48:07.287Z,20.19
2022-09-10T08:50:42.533Z,20.20
2022-09-10T08:53:26.029Z,20.01
2022-09-10T08:55:57.838Z,20.02
2022-09-10T08:58:31.970Z,20.00
2022-09-10T09:01:05.044Z,19.95
2022-09-10T09:03:45.515Z,20.05
2022-09-10T09:06:27.034Z,20.37
2022-09-10T09:08:56.485Z,20.42
2022-09-10T09:11:38.693Z,20.54
2022-09-10T09:14:27.471Z,20.70
2022-09-10T09:17:20.423Z,20.63
2022-09-10T09:19:57.101Z,20.58
2022-09-10T09:22:45.452Z,20.54
2022-09-10T09:25:23.582Z,20.70
2022-09-10T09:27:56.433Z,20.83
2022-09-10T09:30:33.169Z,20.74
2022-09-10T09:33:14.984Z,20.96
2022-09-10T09:35:52.708Z,21.13
2022-09-10T09:38:25.496Z,21.13
2022-09-10T09:40:59.417Z,21.26
2022-09-10T09:43:53.261Z,21.30
2022-09-10T09:46:30.238Z,21.46
2022-09-10T09:49:04.494Z,21.40
2022-09-10T09:51:36.695Z,21.67
2022-09-10T09:57:00.076Z,21.59
2022-09-10T09:59:30.933Z,21.82
2022-09-10T10:02:06.788Z,22.05
2022-09-10T10:04:41.464Z,21.83
2022-09-10T10:07:12.758Z,21.82
2022-09-10T10:09:44.566Z,21.93
2022-09-10T10:12:21.141Z,22.32
2022-09-10T10:14:50.012Z,22.12
2022-09-10T10:17:41.757Z,22.33
2022-09-10T10:20:15.414Z,22.29
2022-09-10T10:22:45.508Z,22.26
2022-09-10T10:25:36.310Z,22.17
2022-09-10T10:28:04.697Z,22.31
2022-09-10T10:30:38.220Z,22.59
2022-09-10T10:33:19.351Z,21.96
2022-09-10T10:35:51.712Z,21.86
2022-09-10T10:38:32.208Z,21.57
2022-09-10T10:41:28.076Z,21.66
2022-09-10T10:44:36.068Z,21.43
2022-09-10T10:47:19.137Z,21.50
2022-09-10T10:50:01.406Z,21.43
2022-09-10T10:52:35.233Z,21.40
2022-09-10T10:55:17.019Z,22.03
2022-09-10T10:57:59.945Z,22.26
2022-09-10T11:00:32.029Z,22.87
2022-09-10T11:03:05.214Z,22.75
2022-09-10T11:05:38.694Z,23.06
2022-09-10T11:08:10.267Z,22.68
2022-09-10T11:10:46.312Z,22.70
2022-09-10T11:13:21.940Z,22.57
2022-09-10T11:15:55.328Z,22.16
2022-09-10T11:18:28.974Z,22.04
2022-09-10T11:21:02.261Z,22.24
2022-09-10T11:23:33.668Z,22.31
2022-09-10T11:26:05.673Z,22.29
2022-09-10T11:28:37.872Z,22.40
2022-09-10T11:31:12.008Z,22.06
2022-09-10T11:33:47.363Z,22.06
2022-09-10T11:36:25.213Z,22.04
2022-09-10T11:39:02.899Z,22.33
2022-09-10T11:41:32.844Z,22.56
2022-09-10T11:44:08.610Z,23.04
2022-09-10T11:46:41.203Z,23.50
2022-09-10T11:49:13.849Z,23.14
2022-09-10T11:51:45.546Z,22.97
2022-09-10T11:54:20.878Z,23.16
2022-09-10T11:56:59.307Z,23.37
2022-09-10T11:59:48.079Z,23.16
2022-09-10T12:02:43.140Z,22.28
2022-09-10T12:05:20.593Z,22.33
2022-09-10T12:07:57.345Z,22.08
2022-09-10T12:10:33.238Z,21.72
2022-09-10T12:13:02.158Z,21.85
2022-09-10T12:15:34.446Z,22.28
2022-09-10T12:18:07.655Z,22.09
2022-09-10T12:20:43.944Z,22.35
2022-09-10T12:23:18.508Z,22.74
2022-09-10T12:25:58.905Z,22.98
2022-09-10T12:29:03.178Z,22.87
2022-09-10T12:32:25.996Z,22.08
2022-09-10T12:35:28.782Z,22.21
2022-09-10T12:38:30.587Z,22.08
2022-09-10T12:41:02.176Z,22.46
2022-09-10T12:43:57.251Z,22.81
2022-09-10T12:46:27.085Z,22.22
2022-09-10T12:49:12.538Z,22.66
2022-09-10T12:51:53.883Z,22.37
2022-09-10T12:54:45.813Z,21.95
2022-09-10T12:57:29.097Z,21.72
2022-09-10T13:00:25.626Z,21.34
2022-09-10T13:02:58.359Z,21.54
2022-09-10T13:05:30.597Z,22.21
2022-09-10T13:08:05.700Z,22.57
2022-09-10T13:10:35.240Z,22.58
2022-09-10T13:13:08.205Z,22.33
2022-09-10T13:15:42.018Z,22.46
2022-09-10T13:18:25.979Z,22.40
2022-09-10T13:20:54.719Z,22.10
2022-09-10T13:23:26.764Z,21.64
2022-09-10T13:26:44.334Z,21.47
2022-09-10T13:29:28.909Z,21.63
2022-09-10T13:32:01.753Z,21.65
2022-09-10T13:35:09.599Z,22.09
2022-09-10T13:37:52.870Z,22.39
2022-09-10T13:40:53.439Z,22.66
2022-09-10T13:43:31.206Z,22.89
2022-09-10T13:46:05.511Z,22.49
2022-09-10T13:48:43.883Z,22.59
2022-09-10T13:51:26.056Z,22.94
2022-09-10T13:53:56.956Z,22.35
2022-09-10T13:56:28.509Z,22.66
2022-09-10T13:59:00.645Z,22.29
2022-09-10T14:01:53.335Z,22.24
2022-09-10T14:04:26.376Z,22.15
2022-09-10T14:06:59.142Z,22.49
2022-09-10T14:09:35.548Z,22.45
2022-09-10T14:12:09.260Z,22.21
2022-09-10T14:14:41.965Z,22.25
2022-09-10T14:17:17.383Z,22.06
2022-09-10T14:19:49.422Z,21.98
2022-09-10T14:22:22.445Z,22.28
2022-09-10T14:24:53.367Z,22.29
2022-09-10T14:27:25.343Z,22.50
2022-09-10T14:29:58.567Z,22.53
2022-09-10T14:32:33.408Z,22.48
2022-09-10T14:35:39.485Z,22.28
2022-09-10T14:38:22.783Z,21.96
2022-09-10T14:40:56.047Z,21.82
2022-09-10T14:43:39.240Z,21.58
2022-09-10T14:46:09.058Z,21.31
2022-09-10T14:48:41.391Z,20.64
2022-09-10T14:51:15.781Z,21.03
2022-09-10T14:53:47.065Z,20.93
2022-09-10T14:56:25.871Z,21.39
2022-09-10T14:59:00.107Z,21.57
2022-09-10T15:01:29.377Z,21.64
2022-09-10T15:04:04.313Z,21.85
2022-09-10T15:06:33.786Z,21.75
2022-09-10T15:11:50.852Z,21.93
2022-09-10T15:14:20.260Z,21.95
2022-09-10T15:16:59.353Z,21.85
2022-09-10T15:19:34.913Z,22.15
2022-09-10T15:22:06.144Z,22.30
2022-09-10T15:24:47.415Z,22.57
2022-09-10T15:27:23.531Z,22.38
2022-09-10T15:29:54.551Z,22.34
2022-09-10T15:32:22.882Z,22.46
2022-09-10T15:34:53.374Z,22.49
2022-09-10T15:37:23.292Z,22.89
2022-09-10T15:39:58.556Z,22.63
2022-09-10T15:42:26.904Z,22.88
2022-09-10T15:44:56.217Z,22.67
2022-09-10T15:47:26.766Z,22.70
2022-09-10T15:49:58.893Z,22.63
2022-09-10T15:52:27.515Z,22.53
2022-09-10T15:54:55.651Z,21.83
2022-09-10T15:57:23.863Z,21.62
2022-09-10T15:59:52.138Z,21.58
2022-09-10T16:02:22.152Z,21.38
2022-09-10T16:04:50.335Z,21.23
2022-09-10T16:07:22.051Z,20.93
2022-09-10T16:09:51.493Z,20.83
2022-09-10T16:12:20.169Z,20.68
2022-09-10T16:14:49.383Z,20.77
2022-09-10T16:17:18.024Z,20.69
2022-09-10T16:19:49.989Z,20.61
2022-09-10T16:22:20.715Z,20.69
2022-09-10T16:24:51.372Z,20.93
2022-09-10T16:27:24.716Z,20.66
2022-09-10T16:29:52.969Z,20.53
2022-09-10T16:32:22.318Z,20.52
2022-09-10T16:34:51.108Z,20.45
2022-09-10T16:37:23.327Z,20.44
2022-09-10T16:39:53.548Z,20.35
2022-09-10T16:42:25.209Z,20.35
2022-09-10T16:44:56.646Z,20.46
2022-09-10T16:47:25.141Z,20.13
2022-09-10T16:49:54.074Z,20.10
2022-09-10T16:52:22.461Z,20.22
2022-09-10T16:54:52.851Z,19.98
2022-09-10T16:57:27.570Z,19.79
2022-09-10T16:59:57.130Z,19.86
2022-09-10T17:02:25.426Z,19.71
2022-09-10T17:04:55.555Z,19.72
2022-09-10T17:07:23.908Z,19.91
2022-09-10T17:09:56.367Z,19.70
2022-09-10T17:12:28.752Z,19.49
2022-09-10T17:14:57.059Z,19.42
2022-09-10T17:17:25.502Z,19.16
2022-09-10T17:19:54.381Z,19.05
2022-09-10T17:22:22.936Z,19.12
2022-09-10T17:24:54.037Z,19.33
2022-09-10T17:27:25.431Z,19.09
2022-09-10T17:29:56.579Z,18.93
2022-09-10T17:32:24.987Z,19.02
2022-09-10T17:34:55.234Z,18.95
2022-09-10T17:37:26.381Z,18.77
2022-09-10T17:39:56.160Z,18.76
2022-09-10T17:42:24.582Z,18.73
2022-09-10T17:44:54.323Z,18.50
2022-09-10T17:47:24.526Z,18.42
2022-09-10T17:49:54.446Z,18.57
2022-09-10T17:52:22.716Z,18.44
2022-09-10T17:54:58.240Z,18.41
2022-09-10T17:57:26.481Z,18.15
2022-09-10T17:59:55.700Z,18.25
2022-09-10T18:02:25.361Z,18.44
2022-09-10T18:04:54.896Z,18.35
2022-09-10T18:07:23.037Z,18.14
2022-09-10T18:09:52.442Z,18.26
2022-09-10T18:12:21.323Z,18.26
2022-09-10T18:14:50.774Z,18.27
2022-09-10T18:17:19.171Z,18.36
2022-09-10T18:19:52.045Z,18.26
2022-09-10T18:22:20.412Z,18.37
2022-09-10T18:24:49.296Z,18.36
2022-09-10T18:27:18.983Z,18.52
2022-09-10T18:29:48.349Z,18.23
2022-09-10T18:32:18.493Z,18.19
2022-09-10T18:34:47.262Z,18.15
2022-09-10T18:37:18.118Z,18.11
2022-09-10T18:39:48.298Z,18.26
2022-09-10T18:42:18.088Z,18.21
2022-09-10T18:44:47.139Z,18.21
2022-09-10T18:47:34.265Z,18.25
2022-09-10T18:50:05.796Z,18.15
2022-09-10T18:52:36.182Z,18.32
2022-09-10T18:55:05.893Z,18.05
2022-09-10T18:57:34.206Z,18.22
2022-09-10T19:00:04.659Z,18.06
2022-09-10T19:02:33.165Z,17.96
2022-09-10T19:05:18.049Z,17.95
2022-09-10T19:07:49.819Z,18.00
2022-09-10T19:10:19.421Z,17.98
2022-09-10T19:12:49.113Z,17.84
2022-09-10T19:15:18.970Z,17.90
2022-09-10T19:17:48.451Z,17.92
2022-09-10T19:20:18.547Z,17.87
2022-09-10T19:22:48.813Z,17.73
2022-09-10T19:25:18.786Z,17.89
2022-09-10T19:27:47.130Z,17.96
2022-09-10T19:30:16.997Z,17.80
2022-09-10T19:32:45.493Z,17.86
2022-09-10T19:35:14.523Z,17.91
2022-09-10T19:37:43.549Z,17.86
2022-09-10T19:40:14.325Z,17.94
2022-09-10T19:42:43.388Z,18.01
2022-09-10T19:45:12.719Z,17.77
2022-09-10T19:47:41.987Z,17.88
2022-09-10T19:50:12.411Z,18.05
2022-09-10T19:52:42.685Z,18.11
2022-09-10T19:55:14.127Z,17.99
2022-09-10T19:57:45.205Z,17.93
2022-09-10T20:00:30.357Z,17.89
2022-09-10T20:03:05.474Z,17.93
2022-09-10T20:05:38.261Z,17.87
2022-09-10T20:08:07.525Z,17.96
2022-09-10T20:10:39.221Z,18.03
2022-09-10T20:13:08.658Z,17.99
2022-09-10T20:15:44.889Z,18.22
2022-09-10T20:18:14.430Z,17.96
2022-09-10T20:20:47.527Z,17.84
2022-09-10T20:23:16.390Z,17.97
2022-09-10T20:25:48.602Z,17.96
2022-09-10T20:28:17.455Z,17.99
2022-09-10T20:30:46.886Z,17.96
2022-09-10T20:33:15.648Z,18.04
2022-09-10T20:35:46.552Z,17.93
2022-09-10T20:38:15.491Z,18.03
2022-09-10T20:40:45.294Z,18.04
2022-09-10T20:43:14.484Z,18.01
2022-09-10T20:45:46.680Z,18.13
2022-09-10T20:48:16.204Z,18.07
2022-09-10T20:50:52.691Z,18.16
2022-09-10T20:53:22.233Z,18.07
2022-09-10T20:55:54.806Z,17.99
2022-09-10T20:58:24.321Z,17.95
2022-09-10T21:00:53.320Z,17.91
2022-09-10T21:03:23.397Z,17.85
2022-09-10T21:05:52.571Z,17.85
2022-09-10T21:08:21.813Z,17.98
2022-09-10T21:10:50.410Z,17.85
2022-09-10T21:13:24.578Z,17.90
2022-09-10T21:15:54.466Z,18.01
2022-09-10T21:18:23.935Z,17.75
2022-09-10T21:20:52.653Z,17.75
2022-09-10T21:23:22.433Z,17.75
2022-09-10T21:25:54.871Z,17.81
2022-09-10T21:28:27.210Z,17.71
2022-09-10T21:30:57.256Z,18.06
2022-09-10T21:33:26.389Z,17.92
2022-09-10T21:36:01.176Z,18.01
2022-09-10T21:38:29.558Z,17.99
2022-09-10T21:40:59.836Z,18.06
2022-09-10T21:43:30.358Z,17.74
2022-09-10T21:46:00.216Z,17.90
2022-09-10T21:48:30.600Z,17.99
2022-09-10T21:51:00.440Z,18.04
2022-09-10T21:53:29.550Z,17.84
2022-09-10T21:55:59.874Z,18.15
2022-09-10T21:58:31.596Z,17.95
2022-09-10T22:01:04.203Z,17.98
2022-09-10T22:03:34.419Z,17.84
2022-09-10T22:06:12.444Z,17.84
2022-09-10T22:08:48.747Z,17.92
2022-09-10T22:11:19.992Z,17.93
2022-09-10T22:13:54.663Z,18.04
2022-09-10T22:16:25.970Z,17.77
2022-09-10T22:18:59.360Z,18.04
2022-09-10T22:21:28.913Z,18.00
2022-09-10T22:23:58.676Z,18.01
2022-09-10T22:26:28.620Z,17.76
2022-09-10T22:29:00.566Z,17.77
2022-09-10T22:31:31.719Z,17.84
2022-09-10T22:34:02.887Z,17.74
2022-09-10T22:36:34.157Z,17.79
2022-09-10T22:39:05.845Z,17.90
2022-09-10T22:41:35.702Z,17.90
2022-09-10T22:44:06.981Z,17.92
2022-09-10T22:46:35.979Z,17.99
2022-09-10T22:49:06.017Z,17.82
2022-09-10T22:51:36.208Z,17.81
2022-09-10T22:54:06.664Z,17.84
2022-09-10T22:56:36.505Z,17.75
2022-09-10T22:59:07.979Z,17.73
2022-09-10T23:01:38.385Z,17.87
2022-09-10T23:04:09.454Z,17.81
2022-09-10T23:06:39.538Z,17.93
2022-09-10T23:09:10.553Z,17.81
2022-09-10T23:11:40.377Z,17.92
2022-09-10T23:14:15.561Z,17.86
2022-09-10T23:16:48.431Z,17.95
2022-09-10T23:19:19.779Z,17.76
2022-09-10T23:21:50.089Z,17.70
2022-09-10T23:24:20.249Z,17.68
2022-09-10T23:26:49.998Z,17.67
2022-09-10T23:29:20.565Z,17.73
2022-09-10T23:31:55.892Z,17.63
2022-09-10T23:34:25.474Z,17.54
2022-09-10T23:36:54.796Z,17.61
2022-09-10T23:39:25.114Z,17.70
2022-09-10T23:41:54.744Z,17.69
2022-09-10T23:44:25.870Z,17.61
2022-09-10T23:46:55.611Z,17.50
2022-09-10T23:49:25.918Z,17.70
2022-09-10T23:51:54.607Z,17.59
2022-09-10T23:54:24.793Z,17.59
2022-09-10T23:56:57.319Z,17.52
2022-09-10T23:59:28.111Z,17.58
